Hlavní strana
METAR-TAF:

METAR-TAF

Letiště :

Ørsta-Volda, Norsko

zeměpisná šířka: 62-11N, zeměpisná délka: 006-04E, výška: 7 m

Aktuální stav počasí

Zpráva byla vytvořena před 36 minutami, v 07:20 UTC
Jihozápadní vítr 7 kt
Teplota 19°C
Vlhkost vzduchu 37%
Tlak 1011 hPa
Viditelnost 10 km a více
Žádná oblačnost pod 1500 m, nevyskytují se cumulonimby.

METAR: ENOV 260720Z 23007KT CAVOK 19/04 Q1011 RMK WIND 2175FT 14021KT

Čas: 09:56 (07:56 UTC)


TAF: chybějící

Stav a předpovědi počasí z více než 4 000 letišť (zprávy METAR a TAF).

Červené a žluté tečky na mapě představují dostupné meteorologické stanice.

Když kurzor umístíte na tečku, zobrazí se název stanice.

Pak kliknutím zobrazíte stav a předpověď počasí.

Chcete-li změnit mapu, kliknutím na zelené tlačítko se znaménkem +mapu přiblížíte, kliknutím na zelené tlačítko se znaménkem – mapu oddálíte a kliknutím na zelené šipky přejdete na sousední mapy.


METAR-TAF: